Time;durP1;ratioP1;P1;durP2;ratioP2;P2;SDS_P1;SDS_P2;PMS_P1;PMS_P2;Temp;Humidity;BMP_temperature;BMP_pressure;BME280_temperature;BME280_humidity;BME280_pressure;Samples;Min_cycle;Max_cycle;Signal;HPM_P1;HPM_P2
2022/01/07 00:01:49;;;;;;;0.90;0.90;;;;;;;-2.90;100.00;99222.53;4897986;29;20461;-74
2022/01/07 00:04:15;;;;;;;0.95;0.95;;;;;;;-3.11;100.00;99231.72;4897315;29;20497;-74
2022/01/07 00:06:40;;;;;;;2.67;2.53;;;;;;;-3.08;100.00;99234.41;4897825;29;20386;-74
2022/01/07 00:09:05;;;;;;;1.60;1.60;;;;;;;-3.26;100.00;99234.47;4897756;29;20033;-74
2022/01/07 00:11:31;;;;;;;1.88;1.85;;;;;;;-3.08;100.00;99231.88;4897912;29;20123;-74
2022/01/07 00:13:56;;;;;;;2.33;2.15;;;;;;;-2.97;100.00;99222.19;4897735;29;20033;-74
2022/01/07 00:16:21;;;;;;;0.90;0.90;;;;;;;-3.10;100.00;99228.38;4897758;29;20482;-74
2022/01/07 00:18:47;;;;;;;0.80;0.80;;;;;;;-3.08;100.00;99225.94;4897912;29;20031;-73
2022/01/07 00:21:12;;;;;;;1.23;1.17;;;;;;;-3.03;100.00;99230.41;4897759;29;20029;-75
2022/01/07 00:23:38;;;;;;;0.88;0.88;;;;;;;-3.14;100.00;99224.00;4897674;29;20402;-74
2022/01/07 00:26:03;;;;;;;1.45;1.45;;;;;;;-3.16;100.00;99212.91;4897516;29;20025;-75
2022/01/07 00:28:29;;;;;;;1.73;1.67;;;;;;;-3.24;100.00;99211.72;4897479;29;20119;-75
2022/01/07 00:30:55;;;;;;;2.70;2.50;;;;;;;-3.23;100.00;99216.00;4897720;29;20116;-75
2022/01/07 00:33:20;;;;;;;2.20;2.08;;;;;;;-3.26;100.00;99205.72;4897434;29;20035;-75
2022/01/07 00:35:46;;;;;;;3.97;2.25;;;;;;;-3.14;100.00;99201.19;4897401;29;20156;-75
2022/01/07 00:38:12;;;;;;;1.17;1.10;;;;;;;-3.05;100.00;99186.34;4897408;29;20085;-75
2022/01/07 00:40:37;;;;;;;0.85;0.85;;;;;;;-3.29;100.00;99190.38;4897315;29;20124;-75
2022/01/07 00:43:03;;;;;;;1.33;1.33;;;;;;;-3.17;100.00;99185.84;4897571;29;20024;-75
2022/01/07 00:45:28;;;;;;;1.05;1.05;;;;;;;-2.98;100.00;99183.28;4897430;29;20490;-75
2022/01/07 00:47:55;;;;;;;1.45;1.38;;;;;;;-3.13;100.00;99182.66;4897206;29;20029;-75
2022/01/07 00:50:22;;;;;;;1.13;1.13;;;;;;;-3.17;100.00;99180.78;4897285;29;20039;-75
2022/01/07 00:52:49;;;;;;;1.30;1.30;;;;;;;-3.10;100.00;99176.03;4897255;29;20585;-75
2022/01/07 00:55:15;;;;;;;1.80;1.70;;;;;;;-3.30;100.00;99183.59;4897199;29;20398;-75
2022/01/07 00:57:41;;;;;;;2.25;1.50;;;;;;;-3.32;100.00;99185.19;4897238;29;20099;-75
2022/01/07 05:17:02;;;;;;;0.70;0.70;;;;;;;-3.89;100.00;99120.25;5152316;23;20112;-72
2022/01/07 05:19:27;;;;;;;1.98;1.45;;;;;;;-3.79;100.00;99125.75;4896978;29;20036;-72
2022/01/07 05:21:52;;;;;;;0.80;0.80;;;;;;;-3.81;100.00;99127.34;4896967;29;20028;-72
2022/01/07 05:24:18;;;;;;;1.45;1.45;;;;;;;-3.94;100.00;99124.25;4896987;29;20442;-72
2022/01/07 05:26:43;;;;;;;2.25;2.05;;;;;;;-3.78;100.00;99122.41;4896710;29;20025;-72
2022/01/07 05:29:09;;;;;;;0.80;0.80;;;;;;;-3.80;100.00;99126.53;4896877;29;20025;-72
2022/01/07 05:31:34;;;;;;;3.35;1.38;;;;;;;-3.60;100.00;99117.28;4897765;29;20050;-70
2022/01/07 05:33:59;;;;;;;1.50;1.45;;;;;;;-3.71;100.00;99119.34;4896946;29;20031;-70
2022/01/07 05:36:25;;;;;;;1.00;1.00;;;;;;;-3.76;100.00;99123.34;4897271;29;20160;-70
2022/01/07 05:38:50;;;;;;;0.90;0.90;;;;;;;-3.60;100.00;99115.63;4907839;29;20032;-70
2022/01/07 05:41:16;;;;;;;1.65;1.65;;;;;;;-3.63;100.00;99108.78;4915741;29;20112;-69
2022/01/07 05:43:42;;;;;;;1.05;1.05;;;;;;;-3.39;100.00;99111.44;4915692;29;20530;-70
2022/01/07 05:46:10;;;;;;;1.88;1.77;;;;;;;-3.33;100.00;99107.47;4915336;29;20031;-71
2022/01/07 05:48:36;;;;;;;1.35;1.35;;;;;;;-3.37;100.00;99112.41;4915696;29;20437;-70
2022/01/07 05:51:01;;;;;;;5.47;2.40;;;;;;;-3.22;100.00;99111.31;4915677;29;20035;-70
2022/01/07 05:53:26;;;;;;;13.13;2.33;;;;;;;-3.23;100.00;99109.59;4915735;29;20028;-70
2022/01/07 05:55:52;;;;;;;2.65;2.47;;;;;;;-3.19;100.00;99111.44;4915434;29;20493;-70
2022/01/07 05:58:17;;;;;;;19.38;4.82;;;;;;;-3.18;100.00;99108.97;4915519;29;20043;-70
2022/01/07 06:00:42;;;;;;;7.93;4.53;;;;;;;-3.05;100.00;99105.25;4915521;29;20050;-69
2022/01/07 06:03:08;;;;;;;4.55;2.53;;;;;;;-2.98;100.00;99102.19;4917996;29;20107;-69
2022/01/07 06:05:33;;;;;;;1.58;1.52;;;;;;;-2.97;100.00;99096.31;4918791;29;20036;-70
2022/01/07 06:07:58;;;;;;;2.10;2.00;;;;;;;-2.79;100.00;99097.88;4912912;29;20024;-70
2022/01/07 06:10:24;;;;;;;1.30;1.23;;;;;;;-2.77;100.00;99096.25;4902971;29;20111;-70
2022/01/07 06:12:49;;;;;;;1.45;1.45;;;;;;;-2.79;100.00;99090.25;4899756;29;20034;-70
2022/01/07 06:15:14;;;;;;;1.20;1.10;;;;;;;-2.81;100.00;99089.31;4899437;29;20069;-70
2022/01/07 06:17:40;;;;;;;1.80;1.70;;;;;;;-2.72;100.00;99090.53;4899794;29;20032;-71
2022/01/07 06:20:06;;;;;;;1.48;1.27;;;;;;;-2.74;100.00;99089.63;4900142;29;20044;-70
2022/01/07 06:22:32;;;;;;;0.80;0.80;;;;;;;-2.67;100.00;99089.06;4899969;29;20036;-70
2022/01/07 06:24:57;;;;;;;1.42;1.40;;;;;;;-2.67;100.00;99089.06;4899953;29;20030;-71
2022/01/07 06:27:23;;;;;;;1.05;1.05;;;;;;;-2.67;100.00;99083.97;4899523;29;20021;-70
2022/01/07 06:29:48;;;;;;;0.82;0.82;;;;;;;-2.70;100.00;99077.94;4899911;29;20120;-71
2022/01/07 06:32:13;;;;;;;1.17;1.17;;;;;;;-2.71;100.00;99086.34;4899232;29;20347;-71
2022/01/07 06:34:38;;;;;;;1.63;1.52;;;;;;;-2.73;100.00;99082.88;4909749;29;20536;-71
2022/01/07 06:37:04;;;;;;;1.08;1.08;;;;;;;-2.71;100.00;99082.13;4911965;29;20028;-71
2022/01/07 06:39:30;;;;;;;1.00;0.98;;;;;;;-2.46;100.00;99083.97;4910597;29;20016;-70
2022/01/07 06:41:57;;;;;;;6.95;1.52;;;;;;;-2.29;100.00;99081.19;4918512;29;20035;-70
2022/01/07 06:44:22;;;;;;;1.55;1.55;;;;;;;-2.45;100.00;99090.75;4918404;29;20043;-70
2022/01/07 06:46:48;;;;;;;0.90;0.90;;;;;;;-2.67;100.00;99083.97;4918247;29;20040;-69
2022/01/07 06:49:13;;;;;;;4.57;1.25;;;;;;;-2.75;100.00;99079.44;4918382;29;20064;-70
2022/01/07 06:51:40;;;;;;;1.55;1.55;;;;;;;-2.76;100.00;99082.75;4918391;29;20031;-71
2022/01/07 06:54:07;;;;;;;0.98;0.98;;;;;;;-2.76;100.00;99082.75;4918225;29;20043;-71
2022/01/07 06:56:33;;;;;;;5.57;2.08;;;;;;;-2.71;100.00;99076.19;4918116;29;20039;-71
2022/01/07 06:58:58;;;;;;;3.15;1.38;;;;;;;-2.62;100.00;99074.00;4918077;29;20028;-70
2022/01/07 07:01:23;;;;;;;1.40;1.40;;;;;;;-2.56;100.00;99070.84;4918240;29;20052;-69
2022/01/07 07:03:49;;;;;;;1.10;1.10;;;;;;;-2.52;98.86;99073.56;4910530;29;20398;-70
2022/01/07 07:06:14;;;;;;;0.85;0.85;;;;;;;-2.53;97.83;99069.31;4908292;29;20037;-70
2022/01/07 07:08:40;;;;;;;1.55;1.48;;;;;;;-2.51;96.21;99065.16;4909436;29;20359;-71
2022/01/07 07:11:06;;;;;;;6.07;1.80;;;;;;;-2.49;95.85;99058.47;4918019;29;20024;-70
2022/01/07 07:13:32;;;;;;;1.65;1.65;;;;;;;-2.42;96.33;99060.44;4932230;29;20056;-70
2022/01/07 07:15:57;;;;;;;1.98;1.88;;;;;;;-2.29;95.58;99055.81;4917613;29;20067;-71
2022/01/07 07:18:22;;;;;;;1.90;1.80;;;;;;;-2.40;94.19;99047.81;4917857;29;20032;-70
2022/01/07 07:20:48;;;;;;;1.60;1.58;;;;;;;-2.41;95.53;99046.94;4917809;29;20088;-70
2022/01/07 07:23:13;;;;;;;1.23;1.20;;;;;;;-2.43;94.53;99043.47;4917903;29;20107;-70
2022/01/07 07:25:39;;;;;;;1.30;1.30;;;;;;;-2.30;92.77;99049.03;4917633;29;20035;-71
2022/01/07 07:28:05;;;;;;;1.17;1.17;;;;;;;-2.33;92.40;99054.84;4917531;29;20537;-70
2022/01/07 07:30:36;;;;;;;1.58;1.48;;;;;;;-2.35;93.04;99056.47;4917648;29;20035;-70
2022/01/07 07:38:44;;;;;;;2.88;2.58;;;;;;;-2.06;94.28;99034.69;4909565;29;20594;-70
2022/01/07 07:41:10;;;;;;;1.63;1.58;;;;;;;-2.04;93.54;99032.19;4917654;29;20032;-70
2022/01/07 07:43:37;;;;;;;1.20;1.10;;;;;;;-2.10;93.45;99025.22;4917609;29;20044;-71
2022/01/07 07:46:04;;;;;;;0.85;0.85;;;;;;;-1.95;91.34;99027.44;4917145;29;20047;-71
2022/01/07 07:48:30;;;;;;;1.70;1.60;;;;;;;-1.71;91.10;99032.53;4917308;29;20032;-70
2022/01/07 07:50:55;;;;;;;1.50;1.48;;;;;;;-1.57;90.63;99022.00;4917214;29;20031;-70
2022/01/07 07:53:21;;;;;;;0.77;0.77;;;;;;;-1.55;89.81;99029.69;4917260;29;20035;-70
2022/01/07 07:55:51;;;;;;;2.08;1.92;;;;;;;-1.44;91.12;99025.84;4916968;29;20395;-70
2022/01/07 07:58:16;;;;;;;0.73;0.73;;;;;;;-1.53;90.96;99028.06;4917120;29;20490;-70
2022/01/07 08:00:42;;;;;;;1.88;1.77;;;;;;;-1.35;91.40;99018.53;4917168;29;20119;-70
2022/01/07 08:03:07;;;;;;;1.08;1.08;;;;;;;-1.40;90.02;99020.06;4927854;29;20163;-70
2022/01/07 08:05:32;;;;;;;1.83;1.73;;;;;;;-1.12;89.37;99019.25;4908799;29;20047;-70
2022/01/07 08:08:02;;;;;;;1.80;1.70;;;;;;;-1.10;88.65;99014.25;4905559;29;20033;-70
2022/01/07 08:10:27;;;;;;;1.13;1.13;;;;;;;-1.26;90.60;99010.31;4914687;29;20032;-70
2022/01/07 08:18:14;;;;;;;1.95;1.85;;;;;;;-0.28;89.64;99001.47;4916110;29;20556;-70
2022/01/07 08:20:39;;;;;;;2.00;1.90;;;;;;;0.00;87.82;98994.63;4916060;29;20031;-71
2022/01/07 08:23:05;;;;;;;2.10;1.95;;;;;;;-0.58;89.11;98985.28;4915932;29;20090;-72
2022/01/07 08:25:32;;;;;;;2.38;2.25;;;;;;;-0.37;89.36;98985.94;4914900;29;20028;-70
2022/01/07 08:28:01;;;;;;;1.98;1.85;;;;;;;-0.70;89.85;98990.03;4915632;29;20482;-70
2022/01/07 08:30:29;;;;;;;1.55;1.45;;;;;;;-0.57;90.13;98987.03;4874423;29;20040;-70
2022/01/07 08:35:39;;;;;;;1.77;1.70;;;;;;;-0.34;89.92;98980.94;4887936;29;20504;-70
2022/01/07 08:38:05;;;;;;;2.38;1.30;;;;;;;-0.43;89.75;98980.69;4885574;29;20025;-71
2022/01/07 08:40:31;;;;;;;6.57;1.75;;;;;;;-0.55;89.78;98990.47;4894856;29;20024;-70
2022/01/07 08:42:56;;;;;;;1.13;1.13;;;;;;;-0.47;89.58;98978.84;4896710;29;20024;-70
2022/01/07 08:45:24;;;;;;;2.85;1.92;;;;;;;-0.62;89.52;98983.50;4896540;29;20036;-71
2022/01/07 08:47:49;;;;;;;1.15;1.10;;;;;;;-0.55;90.03;98980.31;4896399;29;20101;-71
2022/01/07 08:50:14;;;;;;;4.55;2.15;;;;;;;-0.57;89.60;98976.88;4896506;29;20112;-70
2022/01/07 08:52:40;;;;;;;2.03;1.92;;;;;;;-0.62;90.83;98970.78;4896595;29;20498;-71
2022/01/07 08:55:05;;;;;;;2.28;2.17;;;;;;;-0.63;90.43;98981.75;4896544;29;20037;-71
2022/01/07 08:57:30;;;;;;;2.03;1.92;;;;;;;-0.52;91.93;98981.25;4896308;29;20033;-71
2022/01/07 08:59:56;;;;;;;1.42;1.42;;;;;;;-0.55;90.03;98975.22;4896250;29;20119;-70
2022/01/07 09:02:21;;;;;;;1.55;1.30;;;;;;;-0.72;89.84;98981.50;4892792;29;20035;-71
2022/01/07 09:04:46;;;;;;;1.77;1.75;;;;;;;-0.52;90.98;98977.88;4888494;29;20107;-70
2022/01/07 09:07:12;;;;;;;3.63;2.97;;;;;;;-0.55;90.06;98976.06;4889909;29;20044;-70
2022/01/07 09:09:37;;;;;;;1.65;1.25;;;;;;;-0.53;90.72;98973.59;4888481;29;20037;-70
2022/01/07 09:12:04;;;;;;;2.53;2.05;;;;;;;-0.52;90.43;98975.31;4896291;29;20033;-70
2022/01/07 09:14:30;;;;;;;3.05;2.85;;;;;;;-0.46;91.08;98978.03;4896003;29;20028;-70
2022/01/07 09:16:55;;;;;;;4.45;3.33;;;;;;;-0.59;90.77;98978.47;4859918;29;1079741;-71
2022/01/07 09:19:20;;;;;;;3.05;2.03;;;;;;;-0.74;92.35;98983.13;4896897;29;20458;-70
2022/01/07 09:21:46;;;;;;;1.65;1.55;;;;;;;-0.49;91.97;98977.94;4897007;29;20036;-71
2022/01/07 09:24:11;;;;;;;5.43;2.45;;;;;;;-0.16;91.13;98979.72;4897021;29;20047;-71
2022/01/07 09:26:36;;;;;;;1.90;1.80;;;;;;;-0.05;91.01;98979.22;4896702;29;20028;-70
2022/01/07 09:29:02;;;;;;;4.07;3.05;;;;;;;0.20;89.84;98979.84;4896761;29;20457;-70
2022/01/07 09:31:28;;;;;;;0.98;0.98;;;;;;;0.17;88.45;98974.66;4896888;29;20486;-70
2022/01/07 09:33:53;;;;;;;2.40;2.25;;;;;;;0.17;91.31;98975.53;4888811;29;20483;-70
2022/01/07 09:36:19;;;;;;;1.25;1.25;;;;;;;0.18;88.70;98972.16;4888459;29;20033;-70
2022/01/07 09:38:44;;;;;;;7.55;3.72;;;;;;;0.39;88.90;98971.00;4889384;29;20032;-71
2022/01/07 09:41:09;;;;;;;2.20;2.10;;;;;;;0.53;87.99;98972.19;4881845;29;20060;-71
2022/01/07 09:43:35;;;;;;;1.48;1.48;;;;;;;0.64;88.65;98962.28;4881373;29;20064;-71
2022/01/07 09:46:00;;;;;;;4.60;1.65;;;;;;;0.56;85.77;98962.06;4881792;29;20040;-70
2022/01/07 09:48:26;;;;;;;5.18;2.25;;;;;;;0.68;86.66;98958.97;4881619;29;20029;-71
2022/01/07 09:50:51;;;;;;;1.42;1.42;;;;;;;0.52;85.67;98952.63;4881849;29;20032;-70
2022/01/07 09:53:17;;;;;;;4.22;1.98;;;;;;;0.48;84.33;98955.91;4881774;29;20051;-70
2022/01/07 09:55:43;;;;;;;2.35;2.15;;;;;;;0.59;85.59;98944.31;4880350;29;20112;-71
2022/01/07 09:58:10;;;;;;;16.23;2.85;;;;;;;0.64;83.97;98942.75;4881612;29;20488;-70
2022/01/07 10:00:40;;;;;;;2.30;2.17;;;;;;;0.53;86.39;98949.25;4881771;29;20133;-70
2022/01/07 10:03:08;;;;;;;4.13;3.72;;;;;;;0.31;86.00;98939.38;4887057;29;20028;-70
2022/01/07 10:05:46;;;;;;;1.13;1.13;;;;;;;0.10;85.50;98932.91;4891924;29;20025;-70
2022/01/07 10:08:27;;;;;;;1.25;1.17;;;;;;;0.07;84.60;98927.72;4889074;29;20088;-70
2022/01/07 10:11:14;;;;;;;4.90;4.25;;;;;;;0.64;88.46;98922.34;4862783;29;20587;-70
2022/01/07 10:13:41;;;;;;;3.22;2.22;;;;;;;0.69;89.25;98915.66;4862863;29;20090;-70
2022/01/07 10:16:27;;;;;;;1.60;1.50;;;;;;;0.54;89.38;98915.31;4862331;29;20037;-70
2022/01/07 10:18:52;;;;;;;2.33;2.13;;;;;;;0.38;90.03;98914.06;4862557;29;20091;-70
2022/01/07 10:21:18;;;;;;;6.85;1.50;;;;;;;0.27;90.15;98917.16;4862609;29;20120;-70
2022/01/07 10:23:44;;;;;;;2.13;1.98;;;;;;;0.55;90.46;98921.25;4862615;29;20026;-70
2022/01/07 10:26:18;;;;;;;2.35;2.20;;;;;;;0.48;88.66;98925.34;4862364;29;20038;-71
2022/01/07 10:28:45;;;;;;;2.47;2.30;;;;;;;0.33;89.24;98919.88;4862473;29;20097;-70
2022/01/07 10:31:20;;;;;;;1.90;1.52;;;;;;;0.32;89.37;98910.50;4862535;29;20373;-70
2022/01/07 10:33:48;;;;;;;1.75;1.67;;;;;;;0.58;90.43;98919.66;4884513;29;20056;-71
2022/01/07 10:36:16;;;;;;;1.67;1.55;;;;;;;0.80;88.94;98907.41;4889557;29;20031;-70
2022/01/07 10:39:02;;;;;;;1.00;1.00;;;;;;;0.76;88.80;98907.31;4891120;29;20028;-71
2022/01/07 10:41:27;;;;;;;2.13;2.03;;;;;;;0.62;89.85;98908.69;4899526;29;20063;-71
2022/01/07 10:43:53;;;;;;;2.10;2.00;;;;;;;0.76;89.60;98902.22;4899479;29;20060;-71
2022/01/07 10:46:24;;;;;;;1.52;1.52;;;;;;;0.84;89.69;98906.66;4899331;29;20044;-70
2022/01/07 10:48:53;;;;;;;1.92;1.58;;;;;;;0.93;90.05;98899.19;4898553;29;20644;-71
2022/01/07 10:51:36;;;;;;;5.93;2.08;;;;;;;0.85;89.48;98905.81;4899653;29;20047;-71
2022/01/07 10:54:05;;;;;;;3.80;2.58;;;;;;;0.86;90.86;98897.31;4899540;29;20402;-71
2022/01/07 10:56:37;;;;;;;5.07;4.57;;;;;;;0.42;92.79;98899.69;4899123;29;20067;-71
2022/01/07 10:59:12;;;;;;;6.22;5.03;;;;;;;0.20;92.96;98894.09;4899383;29;20265;-71
2022/01/07 11:01:55;;;;;;;1.55;1.55;;;;;;;0.57;91.61;98897.50;4899436;29;20529;-70
2022/01/07 11:04:26;;;;;;;1.27;1.27;;;;;;;0.73;91.88;98891.97;4884786;29;20031;-71
2022/01/07 11:06:52;;;;;;;1.13;1.13;;;;;;;0.79;89.92;98898.03;4890026;29;20032;-71
2022/01/07 11:09:19;;;;;;;1.23;1.23;;;;;;;0.81;89.72;98891.25;4891224;29;20028;-70
2022/01/07 11:11:51;;;;;;;2.05;1.70;;;;;;;0.76;89.50;98894.56;4899096;29;20033;-71
2022/01/07 11:14:19;;;;;;;1.77;1.58;;;;;;;0.66;91.19;98897.72;4898966;29;20037;-68
2022/01/07 11:16:45;;;;;;;0.88;0.88;;;;;;;0.62;91.19;98893.38;4898662;29;20068;-68
2022/01/07 11:19:11;;;;;;;2.55;2.35;;;;;;;0.51;93.04;98885.50;4898945;29;20066;-69
2022/01/07 11:21:37;;;;;;;2.17;1.90;;;;;;;0.35;94.20;98887.66;4898853;29;20032;-68
2022/01/07 11:24:45;;;;;;;1.85;1.65;;;;;;;0.06;97.13;98892.88;4899006;29;20032;-68
2022/01/07 11:27:12;;;;;;;2.58;1.60;;;;;;;0.20;97.28;98889.00;4888914;29;20091;-69
2022/01/07 11:29:40;;;;;;;4.85;4.43;;;;;;;0.33;97.43;98881.63;4899156;29;20390;-70
2022/01/07 11:32:27;;;;;;;1.35;1.35;;;;;;;0.16;98.73;98879.56;4897112;29;20119;-70
2022/01/07 11:34:56;;;;;;;1.25;1.25;;;;;;;0.01;99.59;98886.81;4880697;29;20035;-71
2022/01/07 11:37:34;;;;;;;;;;;;;;;-0.33;100.00;98877.44;4887845;29;20028;-70
2022/01/07 11:39:59;;;;;;;1.25;1.15;;;;;;;-0.35;100.00;98882.47;4892392;29;19911;-70
2022/01/07 11:42:45;;;;;;;1.85;1.75;;;;;;;-0.34;100.00;98879.13;4898507;29;20032;-70
2022/01/07 11:45:27;;;;;;;1.92;1.40;;;;;;;-0.30;100.00;98875.81;4898376;29;20534;-71
2022/01/07 11:47:53;;;;;;;1.08;1.08;;;;;;;-0.27;100.00;98868.25;4898348;29;20040;-71
2022/01/07 11:50:19;;;;;;;1.65;1.52;;;;;;;-0.05;100.00;98861.16;4898416;29;20028;-71
2022/01/07 11:52:56;;;;;;;0.90;0.90;;;;;;;-0.09;100.00;98855.16;4912832;29;20030;-71
2022/01/07 11:55:32;;;;;;;1.52;1.52;;;;;;;0.00;100.00;98859.63;4898415;29;20104;-71
2022/01/07 11:58:02;;;;;;;1.15;1.15;;;;;;;0.04;100.00;98861.41;4912675;29;20043;-71
2022/01/07 12:00:56;;;;;;;1.00;1.00;;;;;;;-0.22;100.00;98860.75;4897285;29;20406;-71
2022/01/07 12:03:39;;;;;;;1.23;1.23;;;;;;;-0.15;100.00;98851.56;4894242;29;20029;-71
2022/01/07 12:06:23;;;;;;;1.50;1.45;;;;;;;0.10;100.00;98846.28;4882607;29;20057;-71
2022/01/07 12:09:05;;;;;;;1.63;1.63;;;;;;;0.07;100.00;98861.50;4879543;29;20033;-71
2022/01/07 12:11:35;;;;;;;2.65;1.05;;;;;;;0.05;100.00;98837.69;4879179;29;20033;-71
2022/01/07 12:14:02;;;;;;;1.80;1.80;;;;;;;0.39;100.00;98838.50;4879420;29;20040;-71
2022/01/07 12:16:32;;;;;;;1.48;1.40;;;;;;;0.56;100.00;98829.53;4878916;29;20025;-71
2022/01/07 12:19:16;;;;;;;1.88;1.45;;;;;;;0.72;98.54;98833.25;4879241;29;20025;-71
2022/01/07 12:21:43;;;;;;;1.13;1.13;;;;;;;0.65;97.82;98834.81;4879089;29;20033;-71
2022/01/07 12:24:11;;;;;;;1.13;1.13;;;;;;;0.87;94.99;98833.63;4879117;29;20439;-71
2022/01/07 12:26:36;;;;;;;1.38;1.35;;;;;;;0.78;95.66;98825.78;4878738;29;20533;-71
2022/01/07 12:29:03;;;;;;;0.88;0.88;;;;;;;0.70;96.80;98824.72;4879053;29;20045;-73
2022/01/07 12:31:29;;;;;;;2.58;2.38;;;;;;;0.63;97.04;98821.19;4878974;29;20103;-71
2022/01/07 12:33:57;;;;;;;3.20;3.00;;;;;;;0.49;98.45;98804.75;4886590;29;20124;-71
2022/01/07 12:36:30;;;;;;;1.20;1.20;;;;;;;0.77;95.89;98811.28;4887571;29;20124;-71
2022/01/07 12:39:09;;;;;;;3.20;2.60;;;;;;;0.90;94.20;98799.66;4889742;29;20028;-71
2022/01/07 12:41:36;;;;;;;1.75;1.63;;;;;;;1.16;93.76;98805.25;4897392;29;20028;-71
2022/01/07 12:44:05;;;;;;;2.80;1.50;;;;;;;0.67;95.46;98799.16;4897550;29;20485;-70
2022/01/07 12:46:31;;;;;;;1.58;1.50;;;;;;;0.69;96.43;98785.63;4897182;29;20036;-71
2022/01/07 12:48:56;;;;;;;1.05;1.05;;;;;;;1.08;93.19;98784.72;4897283;29;20479;-70
2022/01/07 12:51:22;;;;;;;2.03;1.90;;;;;;;0.99;91.91;98779.44;4897423;29;20123;-70
2022/01/07 12:53:55;;;;;;;1.15;1.15;;;;;;;1.02;94.27;98774.41;4897440;29;20036;-70
2022/01/07 12:56:33;;;;;;;1.55;1.45;;;;;;;1.32;92.11;98771.56;4897108;29;20032;-70
2022/01/07 12:59:14;;;;;;;1.98;1.88;;;;;;;0.85;94.54;98778.28;4897239;29;20027;-70
2022/01/07 13:01:43;;;;;;;1.45;1.42;;;;;;;1.09;92.69;98767.72;4897268;29;20124;-70
2022/01/07 13:04:13;;;;;;;2.15;2.03;;;;;;;1.11;91.43;98766.91;4887296;29;20028;-70
2022/01/07 13:06:59;;;;;;;1.38;1.38;;;;;;;1.08;93.25;98761.75;4888628;29;20037;-69
2022/01/07 13:09:29;;;;;;;1.10;1.10;;;;;;;1.40;91.62;98762.38;4888964;29;20044;-69
2022/01/07 13:11:56;;;;;;;1.42;1.40;;;;;;;1.27;90.91;98753.63;4896591;29;20040;-69
2022/01/07 13:14:24;;;;;;;0.85;0.85;;;;;;;1.68;87.83;98745.81;4897017;29;20060;-69
2022/01/07 13:16:52;;;;;;;0.95;0.95;;;;;;;1.54;89.35;98747.28;4896651;29;20033;-69
2022/01/07 13:19:18;;;;;;;0.90;0.90;;;;;;;1.24;89.43;98748.44;4897356;29;20388;-69
2022/01/07 13:21:43;;;;;;;0.90;0.90;;;;;;;1.52;88.41;98748.97;4897068;29;20024;-69
2022/01/07 13:24:14;;;;;;;1.80;1.73;;;;;;;1.25;89.26;98742.50;4896543;29;20032;-69
2022/01/07 13:26:40;;;;;;;1.80;1.70;;;;;;;1.27;89.34;98742.56;4895816;29;20538;-68
2022/01/07 13:29:17;;;;;;;2.20;1.38;;;;;;;1.10;91.29;98742.22;4896613;29;20036;-69
2022/01/07 13:31:46;;;;;;;1.45;1.40;;;;;;;1.37;90.04;98733.38;4896811;29;20482;-69
2022/01/07 13:34:20;;;;;;;0.80;0.80;;;;;;;1.70;87.83;98733.09;4886516;29;20037;-69
2022/01/07 13:36:46;;;;;;;3.03;1.23;;;;;;;1.39;90.41;98726.59;4886014;29;20025;-69
2022/01/07 13:39:15;;;;;;;0.70;0.70;;;;;;;1.74;89.75;98730.63;4877811;29;20574;-69
2022/01/07 13:41:58;;;;;;;6.20;0.90;;;;;;;1.69;89.70;98732.25;4878142;29;20076;-69
2022/01/07 13:44:25;;;;;;;0.70;0.70;;;;;;;1.83;88.99;98723.91;4878229;29;20021;-69
2022/01/07 13:46:58;;;;;;;1.15;1.15;;;;;;;2.04;88.02;98714.03;4877921;29;20029;-69
2022/01/07 13:49:24;;;;;;;1.95;1.23;;;;;;;2.09;87.17;98722.63;4877946;29;20056;-73
2022/01/07 13:51:57;;;;;;;1.80;1.70;;;;;;;1.84;86.23;98715.41;4877916;29;20035;-69
2022/01/07 13:54:32;;;;;;;0.95;0.95;;;;;;;1.86;87.78;98719.72;4878208;29;20052;-69
2022/01/07 13:57:11;;;;;;;1.73;1.63;;;;;;;1.78;88.62;98721.28;4877558;29;20076;-69
2022/01/07 13:59:44;;;;;;;0.90;0.90;;;;;;;1.85;86.35;98722.25;4878033;29;20021;-69
2022/01/07 14:02:15;;;;;;;0.80;0.80;;;;;;;1.41;87.43;98722.38;4877694;29;20414;-69
2022/01/07 14:05:11;;;;;;;3.05;2.30;;;;;;;1.39;89.08;98716.38;4887906;29;20101;-69
2022/01/07 14:07:39;;;;;;;1.52;1.52;;;;;;;1.52;89.44;98723.44;4886251;29;20036;-69
2022/01/07 14:10:11;;;;;;;1.40;1.35;;;;;;;1.53;89.32;98710.69;4889929;29;20048;-69
2022/01/07 14:12:45;;;;;;;1.40;1.30;;;;;;;1.64;89.13;98712.53;4896775;29;20398;-69
2022/01/07 14:15:12;;;;;;;1.13;1.13;;;;;;;1.61;87.81;98718.47;4896638;29;20056;-69
2022/01/07 14:17:39;;;;;;;1.20;1.20;;;;;;;1.39;90.67;98724.03;4896299;29;20041;-69
2022/01/07 14:20:06;;;;;;;1.50;1.50;;;;;;;1.64;89.06;98738.94;4896454;29;20490;-69
2022/01/07 14:22:34;;;;;;;2.85;1.60;;;;;;;1.59;87.89;98730.34;4896668;29;20447;-69
2022/01/07 14:25:01;;;;;;;0.70;0.70;;;;;;;1.71;87.44;98725.44;4899827;29;20033;-69
2022/01/07 14:27:33;;;;;;;1.85;0.80;;;;;;;1.68;86.22;98727.94;4899749;29;20029;-69
2022/01/07 14:29:59;;;;;;;1.90;1.80;;;;;;;1.85;87.90;98717.16;4899716;29;20490;-69
2022/01/07 14:32:25;;;;;;;2.05;1.95;;;;;;;1.65;88.56;98720.25;4895933;29;20116;-69
2022/01/07 14:34:51;;;;;;;1.15;1.15;;;;;;;1.59;89.58;98724.38;4891931;29;20375;-69
2022/01/07 14:37:17;;;;;;;1.08;1.08;;;;;;;1.51;91.53;98722.56;4892834;29;20027;-69
2022/01/07 14:39:44;;;;;;;1.50;1.40;;;;;;;1.39;90.73;98726.59;4891791;29;20020;-69
2022/01/07 14:42:09;;;;;;;7.38;3.53;;;;;;;1.53;92.66;98725.13;4899740;29;20036;-69
2022/01/07 14:44:34;;;;;;;1.25;1.23;;;;;;;1.42;92.22;98721.56;4899702;29;20474;-69
2022/01/07 14:47:00;;;;;;;1.30;1.17;;;;;;;1.41;90.55;98719.84;4899419;29;20035;-69
2022/01/07 14:49:25;;;;;;;0.80;0.80;;;;;;;1.38;90.13;98725.72;4899491;29;20120;-69
2022/01/07 14:51:51;;;;;;;0.93;0.93;;;;;;;1.46;92.18;98713.13;4899373;29;20029;-69
2022/01/07 14:54:16;;;;;;;1.33;1.33;;;;;;;1.41;91.71;98724.94;4899416;29;20043;-69
2022/01/07 14:56:42;;;;;;;1.02;1.00;;;;;;;1.32;90.86;98712.88;4898680;29;20036;-69
2022/01/07 14:59:07;;;;;;;2.35;1.05;;;;;;;1.39;91.92;98719.78;4899324;29;20080;-69
2022/01/07 15:01:32;;;;;;;1.23;1.23;;;;;;;1.32;91.04;98722.22;4899312;29;20032;-69
2022/01/07 15:03:58;;;;;;;1.77;1.67;;;;;;;1.39;93.14;98716.38;4890777;29;20109;-69
2022/01/07 15:06:24;;;;;;;3.20;1.23;;;;;;;1.21;94.82;98716.91;4888905;29;20032;-69
2022/01/07 15:08:50;;;;;;;2.05;1.88;;;;;;;1.03;97.32;98722.56;4891446;29;20107;-69
2022/01/07 15:11:15;;;;;;;1.35;1.35;;;;;;;1.14;95.61;98721.03;4899185;29;20060;-69
2022/01/07 15:13:43;;;;;;;1.98;1.80;;;;;;;1.10;96.16;98713.31;4899119;29;20084;-69
2022/01/07 15:16:53;;;;;;;4.18;2.65;;;;;;;1.09;95.76;98712.44;4898711;29;20598;-69
2022/01/07 15:18:53;;;;;;;3.05;1.63;;;;;;;1.17;94.95;98721.13;4895049;29;20044;-69
2022/01/07 15:21:19;;;;;;;1.70;1.60;;;;;;;1.30;95.85;98714.53;4899079;29;20028;-69
2022/01/07 15:23:44;;;;;;;2.35;1.90;;;;;;;1.28;96.39;98719.59;4898957;29;20402;-69
2022/01/07 15:26:09;;;;;;;2.00;1.85;;;;;;;1.09;96.68;98726.91;4898628;29;20112;-69
2022/01/07 15:28:35;;;;;;;2.55;2.35;;;;;;;1.13;97.64;98727.00;4898763;29;20067;-70
2022/01/07 15:31:00;;;;;;;1.80;1.70;;;;;;;1.03;96.60;98725.09;4898856;29;20052;-69
2022/01/07 15:33:26;;;;;;;5.57;3.45;;;;;;;0.97;98.29;98722.44;4894012;29;20036;-69
2022/01/07 15:35:52;;;;;;;1.52;1.48;;;;;;;0.98;97.81;98714.81;4888467;29;20033;-69
2022/01/07 15:38:18;;;;;;;3.03;2.13;;;;;;;0.97;97.88;98717.34;4887703;29;20096;-69
2022/01/07 15:40:43;;;;;;;2.28;2.17;;;;;;;1.08;99.91;98722.63;4897965;29;20124;-69
2022/01/07 15:43:08;;;;;;;2.13;1.83;;;;;;;1.09;99.34;98725.22;4898438;29;20067;-69
2022/01/07 15:45:34;;;;;;;1.20;1.20;;;;;;;1.14;98.63;98721.03;4898520;29;20032;-69
2022/01/07 15:47:59;;;;;;;2.60;2.45;;;;;;;1.18;98.95;98720.28;4898046;29;20498;-69
2022/01/07 15:50:24;;;;;;;1.80;1.70;;;;;;;1.11;99.60;98727.78;4898347;29;20041;-69
2022/01/07 15:52:50;;;;;;;2.90;2.67;;;;;;;1.31;99.16;98723.06;4912950;29;20509;-69
2022/01/07 15:55:18;;;;;;;1.05;0.95;;;;;;;1.31;98.15;98728.16;4898323;29;20061;-69
2022/01/07 15:57:43;;;;;;;2.75;2.55;;;;;;;1.11;98.32;98725.22;4898112;29;20028;-69
2022/01/07 16:00:09;;;;;;;1.90;1.58;;;;;;;1.10;99.03;98729.47;4898188;29;20088;-69
2022/01/07 16:02:34;;;;;;;1.23;1.23;;;;;;;1.32;98.90;98725.63;4894003;29;20093;-69
2022/01/07 16:05:00;;;;;;;1.52;1.30;;;;;;;1.02;98.87;98731.03;4888989;29;20057;-74
2022/01/07 16:07:25;;;;;;;4.07;3.60;;;;;;;1.05;98.70;98720.03;4890871;29;20036;-74
2022/01/07 16:09:50;;;;;;;7.82;3.50;;;;;;;1.09;98.53;98721.81;4890411;29;20530;-71
2022/01/07 16:12:16;;;;;;;3.17;2.88;;;;;;;1.06;98.54;98721.72;4898081;29;20053;-69